createdAt,value
2022-12-03T00:03:58.022Z,29.27
2022-12-03T00:09:03.146Z,28.67
2022-12-03T00:14:09.426Z,28.30
2022-12-03T00:19:16.945Z,29.17
2022-12-03T00:24:24.044Z,29.83
2022-12-03T00:29:29.006Z,29.77
2022-12-03T00:34:38.038Z,29.10
2022-12-03T00:39:43.224Z,29.23
2022-12-03T00:44:48.229Z,28.90
2022-12-03T00:49:55.882Z,26.80
2022-12-03T00:55:00.895Z,26.77
2022-12-03T01:00:07.446Z,26.97
2022-12-03T01:05:15.085Z,25.53
2022-12-03T01:10:20.342Z,24.80
2022-12-03T01:15:25.295Z,26.13
2022-12-03T01:20:33.128Z,25.40
2022-12-03T01:25:39.207Z,27.27
2022-12-03T01:30:56.377Z,27.20
2022-12-03T01:36:05.099Z,26.27
2022-12-03T01:41:11.881Z,23.70
2022-12-03T01:46:20.858Z,24.53
2022-12-03T01:51:28.665Z,24.93
2022-12-03T01:56:37.966Z,25.23
2022-12-03T02:01:43.058Z,25.90
2022-12-03T02:06:51.105Z,25.57
2022-12-03T02:11:56.611Z,25.17
2022-12-03T02:17:01.563Z,25.93
2022-12-03T02:22:19.499Z,27.10
2022-12-03T02:27:28.620Z,27.10
2022-12-03T02:32:36.810Z,25.13
2022-12-03T02:37:42.281Z,23.83
2022-12-03T02:42:50.511Z,25.97
2022-12-03T02:48:00.437Z,25.10
2022-12-03T02:53:08.679Z,24.93
2022-12-03T02:58:17.344Z,26.20
2022-12-03T03:03:23.868Z,24.77
2022-12-03T03:08:30.052Z,24.47
2022-12-03T03:13:39.706Z,22.70
2022-12-03T03:18:48.084Z,23.77
2022-12-03T03:23:53.539Z,22.30
2022-12-03T03:29:04.358Z,23.53
2022-12-03T03:34:09.349Z,22.40
2022-12-03T03:39:14.810Z,22.07
2022-12-03T03:44:22.500Z,22.03
2022-12-03T03:49:27.650Z,22.60
2022-12-03T03:54:39.994Z,24.57
2022-12-03T03:59:47.569Z,22.43
2022-12-03T04:04:53.194Z,22.60
2022-12-03T04:09:58.405Z,23.67
2022-12-03T04:15:07.187Z,22.23
2022-12-03T04:20:13.686Z,22.07
2022-12-03T04:25:32.076Z,23.40
2022-12-03T04:30:40.840Z,21.10
2022-12-03T04:35:49.487Z,23.00
2022-12-03T04:41:04.492Z,23.93
2022-12-03T04:46:12.407Z,24.73
2022-12-03T04:51:17.436Z,24.23
2022-12-03T04:56:22.508Z,24.73
2022-12-03T05:01:31.652Z,23.83
2022-12-03T05:06:37.146Z,22.37
2022-12-03T05:11:42.664Z,24.57
2022-12-03T05:16:50.361Z,23.27
2022-12-03T05:21:55.309Z,24.90
2022-12-03T05:27:00.273Z,22.97
2022-12-03T05:32:08.281Z,24.10
2022-12-03T05:37:14.579Z,23.53
2022-12-03T05:42:34.057Z,25.67
2022-12-03T05:47:42.314Z,24.50
2022-12-03T05:52:48.634Z,23.63
2022-12-03T05:57:54.066Z,25.63
2022-12-03T06:03:01.841Z,24.83
2022-12-03T06:08:07.926Z,24.63
2022-12-03T06:13:14.269Z,24.30
2022-12-03T06:18:22.666Z,23.03
2022-12-03T06:23:27.825Z,23.80
2022-12-03T06:28:32.718Z,23.90
2022-12-03T06:33:40.175Z,23.93
2022-12-03T06:38:45.329Z,26.20
2022-12-03T06:43:50.321Z,23.00
2022-12-03T06:48:57.999Z,24.07
2022-12-03T06:54:03.348Z,23.10
2022-12-03T06:59:08.560Z,23.13
2022-12-03T07:04:18.207Z,23.70
2022-12-03T07:09:25.082Z,25.10
2022-12-03T07:14:30.619Z,24.07
2022-12-03T07:19:38.430Z,24.80
2022-12-03T07:24:44.207Z,25.37
2022-12-03T07:29:49.271Z,24.83
2022-12-03T07:35:02.950Z,24.00
2022-12-03T07:40:13.524Z,25.20
2022-12-03T07:45:18.511Z,24.80
2022-12-03T07:50:28.419Z,28.30
2022-12-03T07:55:35.778Z,26.60
2022-12-03T08:00:42.311Z,28.37
2022-12-03T08:05:50.106Z,27.67
2022-12-03T08:11:00.229Z,28.27
2022-12-03T08:16:20.965Z,29.23
2022-12-03T08:21:32.876Z,27.77
2022-12-03T08:26:39.928Z,29.67
2022-12-03T08:31:46.369Z,27.20
2022-12-03T08:37:05.607Z,27.73
2022-12-03T08:42:44.095Z,32.07
2022-12-03T08:47:52.564Z,29.53
2022-12-03T08:53:08.227Z,28.80
2022-12-03T08:58:26.380Z,31.80
2022-12-03T09:03:34.642Z,34.17
2022-12-03T09:08:43.382Z,31.80
2022-12-03T09:13:49.400Z,31.77
2022-12-03T09:18:55.465Z,30.97
2022-12-03T09:24:03.259Z,32.40
2022-12-03T09:29:12.159Z,31.57
2022-12-03T09:34:17.695Z,29.97
2022-12-03T09:39:25.634Z,31.03
2022-12-03T09:44:32.557Z,30.40
2022-12-03T09:49:39.903Z,32.43
2022-12-03T09:54:47.851Z,33.43
2022-12-03T09:59:53.025Z,31.97
2022-12-03T10:04:59.038Z,30.20
2022-12-03T10:10:10.019Z,31.20
2022-12-03T10:15:39.183Z,31.27
2022-12-03T10:20:45.254Z,30.60
2022-12-03T10:25:57.887Z,28.83
2022-12-03T10:31:04.694Z,31.83
2022-12-03T10:36:25.091Z,32.60
2022-12-03T10:41:32.766Z,30.93
2022-12-03T10:46:37.838Z,31.73
2022-12-03T10:51:43.180Z,30.27
2022-12-03T10:56:52.467Z,32.27
2022-12-03T11:01:57.520Z,29.13
2022-12-03T11:07:07.472Z,33.90
2022-12-03T11:12:23.255Z,31.60
2022-12-03T11:17:53.107Z,31.10
2022-12-03T11:22:59.013Z,30.37
2022-12-03T11:28:33.903Z,31.53
2022-12-03T11:33:44.732Z,31.07
2022-12-03T11:39:02.632Z,32.20
2022-12-03T11:44:32.750Z,32.70
2022-12-03T11:49:50.732Z,33.50
2022-12-03T11:55:01.732Z,31.63
2022-12-03T12:00:22.247Z,32.30
2022-12-03T12:05:36.773Z,32.67
2022-12-03T12:10:44.012Z,32.73
2022-12-03T12:15:50.305Z,32.87
2022-12-03T12:20:57.836Z,31.87
2022-12-03T12:26:09.742Z,31.63
2022-12-03T12:31:15.326Z,30.80
2022-12-03T12:36:25.154Z,32.00
2022-12-03T12:41:30.353Z,32.50
2022-12-03T12:46:50.690Z,31.87
2022-12-03T12:51:58.429Z,32.23
2022-12-03T12:57:03.453Z,32.07
2022-12-03T13:02:37.408Z,30.00
2022-12-03T13:07:45.963Z,30.27
2022-12-03T13:12:51.087Z,31.90
2022-12-03T13:17:56.001Z,29.67
2022-12-03T13:23:03.486Z,29.53
2022-12-03T13:28:10.334Z,29.83
2022-12-03T13:33:27.266Z,28.33
2022-12-03T13:38:35.112Z,28.47
2022-12-03T13:43:44.602Z,28.23
2022-12-03T13:48:49.784Z,31.50
2022-12-03T13:53:57.747Z,37.53
2022-12-03T13:59:04.456Z,31.87
2022-12-03T14:04:09.599Z,33.17
2022-12-03T14:09:17.492Z,32.30
2022-12-03T14:14:22.466Z,35.40
2022-12-03T14:19:27.332Z,35.50
2022-12-03T14:24:34.970Z,33.83
2022-12-03T14:29:39.993Z,32.17
2022-12-03T14:34:45.194Z,33.50
2022-12-03T14:39:54.707Z,34.73
2022-12-03T14:45:00.984Z,34.40
2022-12-03T14:50:08.035Z,34.30
2022-12-03T14:55:15.615Z,35.20
2022-12-03T15:00:22.287Z,35.50
2022-12-03T15:05:28.943Z,35.07
2022-12-03T15:10:36.881Z,34.20
2022-12-03T15:15:41.848Z,34.57
2022-12-03T15:20:46.943Z,35.27
2022-12-03T15:25:54.587Z,34.37
2022-12-03T15:30:59.615Z,34.23
2022-12-03T15:36:04.592Z,34.43
2022-12-03T15:41:25.522Z,34.50
2022-12-03T15:46:31.697Z,40.20
2022-12-03T15:51:36.830Z,41.57
2022-12-03T15:56:45.378Z,35.53
2022-12-03T16:01:51.121Z,34.90
2022-12-03T16:06:59.078Z,37.40
2022-12-03T16:12:09.021Z,39.17
2022-12-03T16:17:14.181Z,40.10
2022-12-03T16:22:19.746Z,36.73
2022-12-03T16:27:27.797Z,36.37
2022-12-03T16:32:32.777Z,39.17
2022-12-03T16:37:38.097Z,36.00
2022-12-03T16:42:45.751Z,35.97
2022-12-03T16:47:50.706Z,36.87
2022-12-03T16:52:55.937Z,38.17
2022-12-03T16:58:03.539Z,34.50
2022-12-03T17:03:08.681Z,35.40
2022-12-03T17:08:13.774Z,33.93
2022-12-03T17:13:23.871Z,34.20
2022-12-03T17:18:29.042Z,33.67
2022-12-03T17:23:34.188Z,33.57
2022-12-03T17:28:42.520Z,35.70
2022-12-03T17:33:47.553Z,35.63
2022-12-03T17:38:55.664Z,34.50
2022-12-03T17:44:09.736Z,35.10
2022-12-03T17:49:16.199Z,33.97
2022-12-03T17:54:21.407Z,35.77
2022-12-03T17:59:28.980Z,35.27
2022-12-03T18:04:34.165Z,33.60
2022-12-03T18:09:39.212Z,33.60
2022-12-03T18:14:46.804Z,34.23
2022-12-03T18:19:51.938Z,34.73
2022-12-03T18:24:58.193Z,33.43
2022-12-03T18:30:06.016Z,33.07
2022-12-03T18:35:11.554Z,31.70
2022-12-03T18:40:21.616Z,31.27
2022-12-03T18:45:29.182Z,31.70
2022-12-03T18:50:34.183Z,33.87
2022-12-03T18:55:40.329Z,32.90
2022-12-03T19:00:47.929Z,32.73
2022-12-03T19:05:53.000Z,32.37
2022-12-03T19:11:02.683Z,30.80
2022-12-03T19:16:12.444Z,31.60
2022-12-03T19:21:19.234Z,31.93
2022-12-03T19:26:26.368Z,33.30
2022-12-03T19:31:34.278Z,32.73
2022-12-03T19:36:39.264Z,33.40
2022-12-03T19:41:45.153Z,34.77
2022-12-03T19:46:57.355Z,35.60
2022-12-03T19:52:02.470Z,33.23
2022-12-03T19:57:07.465Z,36.30
2022-12-03T20:02:15.401Z,36.27
2022-12-03T20:07:20.663Z,36.40
2022-12-03T20:12:27.056Z,35.03
2022-12-03T20:17:35.447Z,34.17
2022-12-03T20:22:40.681Z,36.70
2022-12-03T20:27:45.892Z,35.67
2022-12-03T20:32:54.035Z,38.90
2022-12-03T20:37:59.064Z,37.97
2022-12-03T20:43:06.373Z,38.13
2022-12-03T20:48:15.827Z,38.27
2022-12-03T20:53:25.356Z,36.00
2022-12-03T20:58:31.116Z,33.77
2022-12-03T21:03:38.833Z,36.77
2022-12-03T21:08:45.027Z,37.67
2022-12-03T21:13:52.371Z,38.37
2022-12-03T21:19:00.107Z,39.50
2022-12-03T21:24:05.062Z,36.93
2022-12-03T21:29:11.616Z,35.33
2022-12-03T21:34:19.144Z,37.67
2022-12-03T21:39:27.555Z,38.40
2022-12-03T21:44:35.270Z,34.93
2022-12-03T21:49:45.830Z,35.07
2022-12-03T21:54:50.727Z,36.67
2022-12-03T21:59:57.693Z,36.43
2022-12-03T22:05:05.365Z,34.07
2022-12-03T22:10:13.643Z,34.13
2022-12-03T22:15:19.704Z,36.87
2022-12-03T22:20:27.837Z,36.80
2022-12-03T22:25:33.691Z,36.33
2022-12-03T22:30:41.700Z,37.57
2022-12-03T22:35:57.709Z,35.27
2022-12-03T22:41:02.720Z,34.30
2022-12-03T22:46:10.559Z,35.50
2022-12-03T22:51:21.903Z,30.77
2022-12-03T22:56:28.711Z,31.80
2022-12-03T23:01:37.128Z,30.13
2022-12-03T23:06:44.931Z,31.83
2022-12-03T23:11:49.832Z,32.33
2022-12-03T23:16:54.800Z,32.23
2022-12-03T23:22:03.527Z,31.90
2022-12-03T23:27:08.556Z,32.67
2022-12-03T23:32:13.623Z,32.33
2022-12-03T23:37:21.261Z,31.33
2022-12-03T23:42:26.542Z,32.13
2022-12-03T23:47:31.596Z,35.53
2022-12-03T23:52:42.837Z,36.27
2022-12-03T23:57:48.874Z,37.07
